createdAt,value
2019-04-22T00:00:12.743Z,0.00
2019-04-22T00:01:13.666Z,0.00
2019-04-22T00:02:13.507Z,0.00
2019-04-22T00:03:15.252Z,0.00
2019-04-22T00:04:17.753Z,0.00
2019-04-22T00:05:25.906Z,0.00
2019-04-22T00:06:30.811Z,0.00
2019-04-22T00:07:35.930Z,0.00
2019-04-22T00:08:36.230Z,0.00
2019-04-22T00:09:38.853Z,0.00
2019-04-22T00:10:40.720Z,0.00
2019-04-22T00:11:37.791Z,0.00
2019-04-22T00:12:43.942Z,0.00
2019-04-22T00:13:41.898Z,0.00
2019-04-22T00:14:38.810Z,0.00
2019-04-22T00:15:32.551Z,0.00
2019-04-22T00:16:50.336Z,0.00
2019-04-22T00:18:54.834Z,0.00
2019-04-22T00:19:43.776Z,0.00
2019-04-22T00:20:35.443Z,0.00
2019-04-22T00:21:40.637Z,0.00
2019-04-22T00:22:40.188Z,0.00
2019-04-22T00:23:39.313Z,0.00
2019-04-22T00:24:38.133Z,0.00
2019-04-22T00:25:42.110Z,0.00
2019-04-22T00:27:42.819Z,0.00
2019-04-22T00:28:43.747Z,0.00
2019-04-22T00:30:35.565Z,0.00
2019-04-22T00:31:40.368Z,0.00
2019-04-22T00:32:38.303Z,0.00
2019-04-22T00:33:39.312Z,0.00
2019-04-22T00:34:32.417Z,0.00
2019-04-22T00:35:37.525Z,0.00
2019-04-22T00:36:36.520Z,0.00
2019-04-22T00:37:58.064Z,0.00
2019-04-22T00:38:38.770Z,0.00
2019-04-22T00:39:44.462Z,0.00
2019-04-22T00:40:42.039Z,0.00
2019-04-22T00:41:43.931Z,0.00
2019-04-22T00:42:41.593Z,0.00
2019-04-22T00:43:45.830Z,0.00
2019-04-22T00:44:40.326Z,0.00
2019-04-22T00:45:38.727Z,0.00
2019-04-22T00:46:43.197Z,0.00
2019-04-22T00:47:40.673Z,0.00
2019-04-22T00:48:48.647Z,0.00
2019-04-22T00:50:37.482Z,0.00
2019-04-22T00:51:44.745Z,0.00
2019-04-22T00:52:38.807Z,0.00
2019-04-22T00:53:39.191Z,0.00
2019-04-22T00:54:51.297Z,0.00
2019-04-22T00:55:40.431Z,0.00
2019-04-22T00:56:35.870Z,0.00
2019-04-22T00:57:42.497Z,0.00
2019-04-22T00:58:41.157Z,0.00
2019-04-22T00:59:40.510Z,0.00
2019-04-22T01:00:40.975Z,0.00
2019-04-22T01:01:38.258Z,0.00
2019-04-22T01:02:41.861Z,0.00
2019-04-22T01:03:44.200Z,0.00
2019-04-22T01:04:40.670Z,0.00
2019-04-22T01:05:44.493Z,0.00
2019-04-22T01:06:38.614Z,0.00
2019-04-22T01:07:41.463Z,0.00
2019-04-22T01:08:46.872Z,0.00
2019-04-22T01:09:44.976Z,0.00
2019-04-22T01:10:38.943Z,0.00
2019-04-22T01:11:37.756Z,0.00
2019-04-22T01:12:41.442Z,0.00
2019-04-22T01:13:38.346Z,0.00
2019-04-22T01:14:41.420Z,0.00
2019-04-22T01:15:41.963Z,0.00
2019-04-22T01:16:45.786Z,0.00
2019-04-22T01:17:40.301Z,0.00
2019-04-22T01:18:37.996Z,0.00
2019-04-22T01:19:45.208Z,0.00
2019-04-22T01:21:00.518Z,0.00
2019-04-22T01:21:39.843Z,0.00
2019-04-22T01:22:34.230Z,0.00
2019-04-22T01:23:37.181Z,0.00
2019-04-22T01:24:32.715Z,0.00
2019-04-22T01:25:37.469Z,0.00
2019-04-22T01:26:34.641Z,0.00
2019-04-22T01:27:32.403Z,0.00
2019-04-22T01:28:30.122Z,0.00
2019-04-22T01:29:32.160Z,0.00
2019-04-22T01:30:26.436Z,0.00
2019-04-22T01:31:20.303Z,0.00
2019-04-22T01:32:23.893Z,0.00
2019-04-22T01:33:23.834Z,0.00
2019-04-22T01:34:32.202Z,0.00
2019-04-22T01:35:28.667Z,0.00
2019-04-22T01:36:38.802Z,0.00
2019-04-22T01:37:34.596Z,0.00
2019-04-22T01:38:43.363Z,0.00
2019-04-22T01:39:43.920Z,0.00
2019-04-22T01:40:48.260Z,0.00
2019-04-22T01:41:48.802Z,0.00
2019-04-22T01:42:50.399Z,0.00
2019-04-22T01:43:51.850Z,0.00
2019-04-22T01:44:40.802Z,0.00
2019-04-22T01:45:39.401Z,0.00
2019-04-22T01:46:45.048Z,0.00
2019-04-22T01:47:46.658Z,0.00
2019-04-22T01:48:39.559Z,0.00
2019-04-22T01:49:44.137Z,0.00
2019-04-22T01:50:41.007Z,0.00
2019-04-22T01:51:51.792Z,0.00
2019-04-22T01:52:50.288Z,0.00
2019-04-22T01:53:43.013Z,0.00
2019-04-22T01:54:52.698Z,0.00
2019-04-22T01:55:45.409Z,0.00
2019-04-22T01:56:40.960Z,0.00
2019-04-22T01:57:44.446Z,0.00
2019-04-22T01:58:33.277Z,0.00
2019-04-22T01:59:37.120Z,0.00
2019-04-22T02:00:45.360Z,0.00
2019-04-22T02:01:48.462Z,0.00
2019-04-22T02:02:41.738Z,0.00
2019-04-22T02:03:46.742Z,0.00
2019-04-22T02:04:44.609Z,0.00
2019-04-22T02:05:44.025Z,0.00
2019-04-22T02:06:45.737Z,0.00
2019-04-22T02:07:41.937Z,0.00
2019-04-22T02:08:53.345Z,0.00
2019-04-22T02:09:47.442Z,0.00
2019-04-22T02:10:50.834Z,0.00
2019-04-22T02:11:48.747Z,0.00
2019-04-22T02:12:45.920Z,0.00
2019-04-22T02:13:42.830Z,0.00
2019-04-22T02:14:45.459Z,0.00
2019-04-22T02:15:47.927Z,0.00
2019-04-22T02:16:49.781Z,0.00
2019-04-22T02:17:50.286Z,0.00
2019-04-22T02:18:50.729Z,0.00
2019-04-22T02:19:45.719Z,0.00
2019-04-22T02:20:43.027Z,0.00
2019-04-22T02:21:42.542Z,0.00
2019-04-22T02:23:02.078Z,0.00
2019-04-22T02:24:48.015Z,0.00
2019-04-22T02:25:49.477Z,0.00
2019-04-22T02:26:40.473Z,0.00
2019-04-22T02:27:52.021Z,0.00
2019-04-22T02:28:55.111Z,0.00
2019-04-22T02:31:01.823Z,0.00
2019-04-22T02:31:56.469Z,0.00
2019-04-22T02:32:59.097Z,0.00
2019-04-22T02:35:03.733Z,0.00
2019-04-22T02:36:15.066Z,0.00
2019-04-22T02:36:42.404Z,0.00
2019-04-22T02:37:45.116Z,0.00
2019-04-22T02:39:48.773Z,0.00
2019-04-22T02:41:13.363Z,0.00
2019-04-22T02:42:52.223Z,0.00
2019-04-22T02:44:48.486Z,0.00
2019-04-22T02:46:02.678Z,0.00
2019-04-22T02:47:14.045Z,0.00
2019-04-22T02:47:54.523Z,0.00
2019-04-22T02:49:08.550Z,0.00
2019-04-22T02:49:45.403Z,0.00
2019-04-22T02:50:54.843Z,0.00
2019-04-22T02:51:40.277Z,0.00
2019-04-22T02:52:43.217Z,0.00
2019-04-22T02:55:48.861Z,0.00
2019-04-22T02:59:05.806Z,0.00
2019-04-22T03:00:58.274Z,0.00
2019-04-22T03:03:00.999Z,0.00
2019-04-22T03:04:43.974Z,0.00
2019-04-22T03:05:55.338Z,0.00
2019-04-22T03:09:47.710Z,0.00
2019-04-22T03:10:56.620Z,0.00
2019-04-22T03:11:59.317Z,0.00
2019-04-22T03:13:09.179Z,0.00
2019-04-22T03:13:57.811Z,0.00
2019-04-22T03:14:49.567Z,0.00
2019-04-22T03:15:59.519Z,0.00
2019-04-22T03:16:51.187Z,0.00
2019-04-22T03:18:55.589Z,0.00
2019-04-22T03:20:06.301Z,0.00
2019-04-22T03:22:00.762Z,0.00
2019-04-22T03:22:59.555Z,0.00
2019-04-22T03:24:17.924Z,0.00
2019-04-22T03:25:05.925Z,0.00
2019-04-22T03:26:48.897Z,0.00
2019-04-22T03:27:46.386Z,0.00
2019-04-22T03:28:51.638Z,0.00
2019-04-22T03:30:26.412Z,0.00
2019-04-22T03:32:16.737Z,0.00
2019-04-22T03:34:15.463Z,0.00
2019-04-22T03:36:26.133Z,4.00
2019-04-22T03:37:53.327Z,0.00
2019-04-22T03:39:06.859Z,4.00
2019-04-22T03:40:54.923Z,4.00
2019-04-22T03:42:05.706Z,4.00
2019-04-22T03:42:55.947Z,8.00
2019-04-22T03:44:10.148Z,8.00
2019-04-22T03:45:00.546Z,8.00
2019-04-22T03:45:37.998Z,12.00
2019-04-22T03:47:02.407Z,8.00
2019-04-22T03:49:07.168Z,16.00
2019-04-22T03:50:52.439Z,20.00
2019-04-22T03:52:10.791Z,24.00
2019-04-22T03:52:53.064Z,28.00
2019-04-22T03:54:02.791Z,28.00
2019-04-22T03:55:53.213Z,40.00
2019-04-22T03:58:58.645Z,68.00
2019-04-22T04:02:13.447Z,96.00
2019-04-22T04:02:54.835Z,112.00
2019-04-22T04:04:03.267Z,128.00
2019-04-22T04:04:51.075Z,140.00
2019-04-22T04:05:52.535Z,160.00
2019-04-22T04:08:57.275Z,220.00
2019-04-22T04:10:08.115Z,244.00
2019-04-22T04:10:53.385Z,268.00
2019-04-22T04:13:05.074Z,324.00
2019-04-22T04:14:05.151Z,356.00
2019-04-22T04:15:14.017Z,384.00
2019-04-22T04:15:53.564Z,412.00
2019-04-22T04:16:56.180Z,452.00
2019-04-22T04:17:59.460Z,488.00
2019-04-22T04:21:10.234Z,608.00
2019-04-22T04:21:53.534Z,652.00
2019-04-22T04:23:04.841Z,696.00
2019-04-22T04:24:17.210Z,748.00
2019-04-22T04:25:06.008Z,800.00
2019-04-22T04:29:02.796Z,1016.00
2019-04-22T04:31:17.688Z,1132.00
2019-04-22T04:32:07.261Z,1188.00
2019-04-22T04:33:54.158Z,1304.00
2019-04-22T04:35:58.727Z,1424.00
2019-04-22T04:37:14.959Z,1480.00
2019-04-22T04:38:11.473Z,1544.00
2019-04-22T04:39:00.013Z,1604.00
2019-04-22T04:40:05.175Z,1660.00
2019-04-22T04:42:07.448Z,1784.00
2019-04-22T04:42:53.280Z,1840.00
2019-04-22T04:44:01.797Z,1904.00
2019-04-22T04:45:12.568Z,1964.00
2019-04-22T04:46:02.825Z,2024.00
2019-04-22T04:47:55.270Z,2144.00
2019-04-22T04:49:57.610Z,2260.00
2019-04-22T04:51:07.712Z,2316.00
2019-04-22T04:52:01.222Z,2372.00
2019-04-22T04:54:04.318Z,2484.00
2019-04-22T04:55:59.763Z,2596.00
2019-04-22T04:56:56.064Z,2648.00
2019-04-22T04:58:04.128Z,2700.00
2019-04-22T04:59:05.732Z,2756.00
2019-04-22T05:00:26.776Z,2804.00
2019-04-22T05:01:11.227Z,2856.00
2019-04-22T05:01:56.037Z,2904.00
2019-04-22T05:03:13.092Z,2956.00
2019-04-22T05:04:04.587Z,3000.00
2019-04-22T05:05:06.406Z,3052.00
2019-04-22T05:07:56.038Z,3188.00
2019-04-22T05:09:14.719Z,3228.00
2019-04-22T05:10:05.382Z,3276.00
2019-04-22T05:11:01.089Z,3316.00
2019-04-22T05:12:04.721Z,3360.00
2019-04-22T05:12:56.697Z,3396.00
2019-04-22T05:13:57.811Z,3440.00
2019-04-22T05:15:00.321Z,3476.00
2019-04-22T05:16:10.711Z,3516.00
2019-04-22T05:16:54.568Z,3552.00
2019-04-22T05:17:57.759Z,3588.00
2019-04-22T05:20:06.849Z,3668.00
2019-04-22T05:21:59.511Z,3740.00
2019-04-22T05:23:01.821Z,3772.00
2019-04-22T05:23:52.455Z,3812.00
2019-04-22T05:24:53.396Z,3844.00
2019-04-22T05:25:55.050Z,3880.00
2019-04-22T05:27:13.328Z,3912.00
2019-04-22T05:28:07.599Z,3940.00
2019-04-22T05:28:50.057Z,3972.00
2019-04-22T05:30:07.518Z,4000.00
2019-04-22T05:30:50.312Z,4028.00
2019-04-22T05:32:52.902Z,4076.00
2019-04-22T05:33:47.943Z,4100.00
2019-04-22T05:35:10.531Z,4120.00
2019-04-22T05:35:53.838Z,4144.00
2019-04-22T05:37:58.074Z,4188.00
2019-04-22T05:38:53.725Z,4208.00
2019-04-22T05:39:49.658Z,4228.00
2019-04-22T05:40:54.236Z,4252.00
2019-04-22T05:41:48.679Z,4272.00
2019-04-22T05:42:53.094Z,4288.00
2019-04-22T05:43:53.278Z,4312.00
2019-04-22T05:44:55.486Z,4328.00
2019-04-22T05:45:52.654Z,4352.00
2019-04-22T05:46:47.860Z,4368.00
2019-04-22T05:47:52.267Z,4396.00
2019-04-22T05:48:56.646Z,4416.00
2019-04-22T05:49:47.746Z,4440.00
2019-04-22T05:50:50.426Z,4460.00
2019-04-22T05:51:48.544Z,4480.00
2019-04-22T05:52:52.647Z,4496.00
2019-04-22T05:53:57.438Z,4516.00
2019-04-22T05:54:57.685Z,4532.00
2019-04-22T05:56:12.505Z,4552.00
2019-04-22T05:56:47.259Z,4572.00
2019-04-22T05:57:51.058Z,4592.00
2019-04-22T05:59:04.566Z,4608.00
2019-04-22T05:59:51.975Z,4624.00
2019-04-22T06:01:21.862Z,4632.00
2019-04-22T06:03:02.184Z,4660.00
2019-04-22T06:03:59.219Z,4672.00
2019-04-22T06:04:51.829Z,4684.00
2019-04-22T06:05:47.837Z,4696.00
2019-04-22T06:06:46.952Z,4708.00
2019-04-22T06:08:51.230Z,4732.00
2019-04-22T06:09:52.955Z,4736.00
2019-04-22T06:10:55.792Z,4748.00
2019-04-22T06:11:46.420Z,4756.00
2019-04-22T06:13:46.336Z,4780.00
2019-04-22T06:14:53.738Z,4792.00
2019-04-22T06:15:44.112Z,4808.00
2019-04-22T06:16:54.009Z,4816.00
2019-04-22T06:17:58.942Z,4828.00
2019-04-22T06:18:56.921Z,4844.00
2019-04-22T06:19:54.187Z,4856.00
2019-04-22T06:20:53.894Z,4864.00
2019-04-22T06:21:49.994Z,4876.00
2019-04-22T06:23:58.861Z,4900.00
2019-04-22T06:24:55.365Z,4912.00
2019-04-22T06:26:05.285Z,4924.00
2019-04-22T06:27:01.698Z,4932.00
2019-04-22T06:27:58.570Z,4932.00
2019-04-22T06:29:51.199Z,4948.00
2019-04-22T06:30:57.303Z,4952.00
2019-04-22T06:32:22.305Z,4956.00
2019-04-22T06:32:53.946Z,4964.00
2019-04-22T06:33:57.480Z,4968.00
2019-04-22T06:34:48.612Z,4972.00
2019-04-22T06:35:57.666Z,4976.00
2019-04-22T06:37:05.348Z,4980.00
2019-04-22T06:37:55.255Z,4980.00
2019-04-22T06:39:04.412Z,4976.00
2019-04-22T06:39:51.015Z,4980.00
2019-04-22T06:40:54.060Z,4980.00
2019-04-22T06:41:53.447Z,4968.00
2019-04-22T06:42:58.549Z,4968.00
2019-04-22T06:43:58.454Z,4972.00
2019-04-22T06:44:51.648Z,4960.00
2019-04-22T06:45:45.344Z,4956.00
2019-04-22T06:46:52.263Z,4952.00
2019-04-22T06:48:01.405Z,4952.00
2019-04-22T06:48:52.498Z,4948.00
2019-04-22T06:49:55.669Z,4948.00
2019-04-22T06:50:58.396Z,4944.00
2019-04-22T06:51:55.617Z,4940.00
2019-04-22T06:52:56.705Z,4940.00
2019-04-22T06:54:57.447Z,4916.00
2019-04-22T06:55:51.665Z,4904.00
2019-04-22T06:56:57.794Z,4888.00
2019-04-22T06:57:51.151Z,4868.00
2019-04-22T06:58:53.715Z,4844.00
2019-04-22T06:59:52.046Z,4820.00
2019-04-22T07:00:53.199Z,4796.00
2019-04-22T07:01:59.411Z,4772.00
2019-04-22T07:03:53.170Z,4744.00
2019-04-22T07:04:56.890Z,4728.00
2019-04-22T07:05:53.497Z,4720.00
2019-04-22T07:06:56.585Z,4712.00
2019-04-22T07:07:57.127Z,4704.00
2019-04-22T07:09:17.905Z,4700.00
2019-04-22T07:09:54.459Z,4696.00
2019-04-22T07:10:50.788Z,4692.00
2019-04-22T07:11:51.527Z,4688.00
2019-04-22T07:12:56.578Z,4684.00
2019-04-22T07:13:57.431Z,4688.00
2019-04-22T07:14:53.525Z,4684.00
2019-04-22T07:15:57.793Z,4688.00
2019-04-22T07:16:56.105Z,4692.00
2019-04-22T07:17:58.299Z,4692.00
2019-04-22T07:18:54.480Z,4692.00
2019-04-22T07:19:53.156Z,4692.00
2019-04-22T07:20:59.890Z,4692.00
2019-04-22T07:21:57.872Z,4700.00
2019-04-22T07:22:51.467Z,4708.00
2019-04-22T07:24:02.736Z,4712.00
2019-04-22T07:24:55.938Z,4724.00
2019-04-22T07:25:52.159Z,4732.00
2019-04-22T07:26:57.618Z,4744.00
2019-04-22T07:27:52.364Z,4744.00
2019-04-22T07:28:56.537Z,4748.00
2019-04-22T07:31:02.310Z,4752.00
2019-04-22T07:31:49.844Z,4760.00
2019-04-22T07:33:51.143Z,4768.00
2019-04-22T07:36:14.639Z,4760.00
2019-04-22T07:37:00.402Z,4760.00
2019-04-22T07:37:54.277Z,4764.00
2019-04-22T07:38:49.177Z,4768.00
2019-04-22T07:39:50.181Z,4768.00
2019-04-22T07:41:10.325Z,4768.00
2019-04-22T07:41:56.127Z,4764.00
2019-04-22T07:43:02.530Z,4768.00
2019-04-22T07:44:54.943Z,4768.00
2019-04-22T07:45:53.800Z,4768.00
2019-04-22T07:48:02.611Z,4776.00
2019-04-22T07:48:57.936Z,4776.00
2019-04-22T07:49:59.177Z,4776.00
2019-04-22T07:52:00.910Z,4776.00
2019-04-22T07:52:52.167Z,4772.00
2019-04-22T07:54:00.111Z,4776.00
2019-04-22T07:56:01.320Z,4792.00
2019-04-22T07:57:07.305Z,4792.00
2019-04-22T07:57:59.349Z,4796.00
2019-04-22T07:58:58.668Z,4800.00
2019-04-22T08:00:00.737Z,4804.00
2019-04-22T08:00:57.346Z,4808.00
2019-04-22T08:01:56.529Z,4812.00
2019-04-22T08:03:01.323Z,4820.00
2019-04-22T08:04:07.599Z,4824.00
2019-04-22T08:06:05.304Z,4812.00
2019-04-22T08:06:58.922Z,4832.00
2019-04-22T08:08:04.419Z,4828.00
2019-04-22T08:09:00.343Z,4836.00
2019-04-22T08:10:18.905Z,4836.00
2019-04-22T08:10:57.903Z,4832.00
2019-04-22T08:11:53.784Z,4832.00
2019-04-22T08:12:57.996Z,4828.00
2019-04-22T08:13:52.773Z,4824.00
2019-04-22T08:15:12.936Z,4824.00
2019-04-22T08:16:10.074Z,4816.00
2019-04-22T08:17:01.022Z,4816.00
2019-04-22T08:19:04.297Z,4816.00
2019-04-22T08:20:58.470Z,4808.00
2019-04-22T08:21:59.882Z,4804.00
2019-04-22T08:22:55.782Z,4792.00
2019-04-22T08:23:58.619Z,4776.00
2019-04-22T08:25:55.716Z,4768.00
2019-04-22T08:27:00.659Z,4768.00
2019-04-22T08:28:01.661Z,4768.00
2019-04-22T08:29:03.422Z,4772.00
2019-04-22T08:30:14.156Z,4772.00
2019-04-22T08:30:59.673Z,4776.00
2019-04-22T08:33:06.845Z,4768.00
2019-04-22T08:34:01.976Z,4768.00
2019-04-22T08:34:55.402Z,4768.00
2019-04-22T08:37:33.161Z,4768.00
2019-04-22T08:38:11.876Z,4764.00
2019-04-22T08:39:13.869Z,4764.00
2019-04-22T08:40:03.492Z,4768.00
2019-04-22T08:40:56.039Z,4764.00
2019-04-22T08:41:50.972Z,4756.00
2019-04-22T08:43:09.182Z,4752.00
2019-04-22T08:44:07.993Z,4752.00
2019-04-22T08:45:09.603Z,4752.00
2019-04-22T08:45:57.132Z,4752.00
2019-04-22T08:47:04.253Z,4752.00
2019-04-22T08:47:55.281Z,4756.00
2019-04-22T08:50:05.995Z,4752.00
2019-04-22T08:51:05.465Z,4752.00
2019-04-22T08:53:02.056Z,4740.00
2019-04-22T08:54:00.477Z,4736.00
2019-04-22T08:55:07.758Z,4732.00
2019-04-22T08:56:07.433Z,4728.00
2019-04-22T08:57:00.097Z,4728.00
2019-04-22T08:58:17.053Z,4724.00
2019-04-22T08:59:02.680Z,4728.00
2019-04-22T09:01:57.356Z,4728.00
2019-04-22T09:03:00.724Z,4724.00
2019-04-22T09:05:10.522Z,4712.00
2019-04-22T09:06:19.938Z,4704.00
2019-04-22T09:08:01.431Z,4688.00
2019-04-22T09:09:00.932Z,4680.00
2019-04-22T09:09:55.658Z,4676.00
2019-04-22T09:10:59.989Z,4664.00
2019-04-22T09:11:59.887Z,4652.00
2019-04-22T09:13:02.493Z,4636.00
2019-04-22T09:14:06.851Z,4620.00
2019-04-22T09:15:20.610Z,4612.00
2019-04-22T09:15:58.988Z,4600.00
2019-04-22T09:17:05.733Z,4584.00
2019-04-22T09:18:06.671Z,4564.00
2019-04-22T09:18:59.254Z,4556.00
2019-04-22T09:20:04.670Z,4548.00
2019-04-22T09:21:07.933Z,4536.00
2019-04-22T09:22:00.008Z,4520.00
2019-04-22T09:23:03.970Z,4508.00
2019-04-22T09:24:05.254Z,4496.00
2019-04-22T09:24:56.664Z,4488.00
2019-04-22T09:26:03.660Z,4484.00
2019-04-22T09:27:05.846Z,4472.00
2019-04-22T09:27:57.731Z,4468.00
2019-04-22T09:29:59.612Z,4456.00
2019-04-22T09:31:01.829Z,4452.00
2019-04-22T09:32:05.524Z,4444.00
2019-04-22T09:33:06.212Z,4440.00
2019-04-22T09:33:53.652Z,4436.00
2019-04-22T09:34:59.022Z,4424.00
2019-04-22T09:36:12.935Z,4416.00
2019-04-22T09:37:06.254Z,4400.00
2019-04-22T09:38:12.039Z,4396.00
2019-04-22T09:39:00.620Z,4404.00
2019-04-22T09:40:06.104Z,4412.00
2019-04-22T09:41:00.684Z,4420.00
2019-04-22T09:41:57.243Z,4404.00
2019-04-22T09:43:17.030Z,4404.00
2019-04-22T09:45:00.268Z,4396.00
2019-04-22T09:45:57.533Z,4392.00
2019-04-22T09:47:00.686Z,4404.00
2019-04-22T09:48:00.885Z,4428.00
2019-04-22T09:49:06.350Z,4400.00
2019-04-22T09:50:18.545Z,4396.00
2019-04-22T09:51:03.754Z,4416.00
2019-04-22T09:52:08.010Z,4432.00
2019-04-22T09:53:02.102Z,4456.00
2019-04-22T09:54:07.290Z,4468.00
2019-04-22T09:55:07.808Z,4484.00
2019-04-22T09:56:03.686Z,4508.00
2019-04-22T09:57:02.173Z,4516.00
2019-04-22T09:59:13.346Z,4544.00
2019-04-22T10:00:04.406Z,4548.00
2019-04-22T10:01:07.704Z,4552.00
2019-04-22T10:02:14.616Z,4568.00
2019-04-22T10:04:00.807Z,4560.00
2019-04-22T10:06:13.284Z,4568.00
2019-04-22T10:07:08.135Z,4552.00
2019-04-22T10:08:06.702Z,4548.00
2019-04-22T10:11:04.708Z,4564.00
2019-04-22T10:12:02.151Z,4572.00
2019-04-22T10:13:10.479Z,4572.00
2019-04-22T10:14:59.935Z,4560.00
2019-04-22T10:16:03.122Z,4564.00
2019-04-22T10:17:01.143Z,4564.00
2019-04-22T10:18:04.832Z,4552.00
2019-04-22T10:19:04.654Z,4548.00
2019-04-22T10:20:02.452Z,4540.00
2019-04-22T10:20:54.098Z,4548.00
2019-04-22T10:22:23.882Z,4572.00
2019-04-22T10:23:05.922Z,4572.00
2019-04-22T10:24:03.117Z,4572.00
2019-04-22T10:25:08.702Z,4564.00
2019-04-22T10:27:01.771Z,4564.00
2019-04-22T10:28:08.940Z,4560.00
2019-04-22T10:29:05.963Z,4600.00
2019-04-22T10:31:17.139Z,4588.00
2019-04-22T10:32:00.868Z,4600.00
2019-04-22T10:33:02.768Z,4596.00
2019-04-22T10:33:53.237Z,4596.00
2019-04-22T10:34:44.463Z,4608.00
2019-04-22T10:35:37.419Z,4624.00
2019-04-22T10:36:37.828Z,4604.00
2019-04-22T10:37:38.623Z,4596.00
2019-04-22T10:38:37.508Z,4580.00
2019-04-22T10:39:46.119Z,4596.00
2019-04-22T10:40:38.743Z,4588.00
2019-04-22T10:41:38.931Z,4588.00
2019-04-22T10:42:38.852Z,4580.00
2019-04-22T10:43:38.996Z,4560.00
2019-04-22T10:44:39.145Z,4560.00
2019-04-22T10:45:37.834Z,4528.00
2019-04-22T10:46:37.982Z,4500.00
2019-04-22T10:47:38.276Z,4508.00
2019-04-22T10:48:37.963Z,4532.00
2019-04-22T10:49:38.346Z,4552.00
2019-04-22T10:50:39.303Z,4596.00
2019-04-22T10:51:38.104Z,4592.00
2019-04-22T10:52:39.370Z,4624.00
2019-04-22T10:53:39.551Z,4636.00
2019-04-22T10:54:38.228Z,4616.00
2019-04-22T10:55:41.670Z,4608.00
2019-04-22T10:56:39.101Z,4624.00
2019-04-22T10:57:39.042Z,4628.00
2019-04-22T10:58:38.541Z,4632.00
2019-04-22T10:59:38.602Z,4620.00
2019-04-22T11:00:39.746Z,4628.00
2019-04-22T11:01:38.716Z,4608.00
2019-04-22T11:02:39.525Z,4592.00
2019-04-22T11:03:39.549Z,4560.00
2019-04-22T11:04:38.719Z,4536.00
2019-04-22T11:05:39.839Z,4532.00
2019-04-22T11:06:44.791Z,4500.00
2019-04-22T11:07:44.374Z,4504.00
2019-04-22T11:08:46.565Z,4504.00
2019-04-22T11:09:50.497Z,4488.00
2019-04-22T11:10:56.665Z,4484.00
2019-04-22T11:11:48.843Z,4496.00
2019-04-22T11:12:39.534Z,4508.00
2019-04-22T11:13:39.918Z,4496.00
2019-04-22T11:14:42.811Z,4500.00
2019-04-22T11:15:40.356Z,4500.00
2019-04-22T11:16:39.592Z,4488.00
2019-04-22T11:17:39.724Z,4476.00
2019-04-22T11:18:39.318Z,4472.00
2019-04-22T11:19:39.546Z,4480.00
2019-04-22T11:20:39.805Z,4464.00
2019-04-22T11:21:39.447Z,4464.00
2019-04-22T11:22:40.734Z,4460.00
2019-04-22T11:23:40.678Z,4452.00
2019-04-22T11:24:41.076Z,4440.00
2019-04-22T11:25:39.692Z,4428.00
2019-04-22T11:26:41.047Z,4420.00
2019-04-22T11:27:41.080Z,4404.00
2019-04-22T11:28:43.480Z,4384.00
2019-04-22T11:29:41.486Z,4392.00
2019-04-22T11:30:40.637Z,4408.00
2019-04-22T11:31:39.917Z,4432.00
2019-04-22T11:32:40.401Z,4428.00
2019-04-22T11:33:40.634Z,4412.00
2019-04-22T11:34:40.056Z,4404.00
2019-04-22T11:35:41.409Z,4400.00
2019-04-22T11:36:40.872Z,4408.00
2019-04-22T11:37:40.802Z,4396.00
2019-04-22T11:38:48.539Z,4384.00
2019-04-22T11:39:40.745Z,4404.00
2019-04-22T11:40:45.502Z,4424.00
2019-04-22T11:41:40.438Z,4436.00
2019-04-22T11:42:40.609Z,4456.00
2019-04-22T11:43:41.150Z,4464.00
2019-04-22T11:44:41.247Z,4492.00
2019-04-22T11:45:41.623Z,4500.00
2019-04-22T11:46:41.096Z,4512.00
2019-04-22T11:47:41.397Z,4556.00
2019-04-22T11:48:42.208Z,4572.00
2019-04-22T11:49:41.734Z,4592.00
2019-04-22T11:50:42.123Z,4616.00
2019-04-22T11:51:42.087Z,4624.00
2019-04-22T11:52:40.856Z,4616.00
2019-04-22T11:53:41.031Z,4600.00
2019-04-22T11:54:41.245Z,4620.00
2019-04-22T11:55:42.457Z,4656.00
2019-04-22T11:56:41.146Z,4676.00
2019-04-22T11:57:41.423Z,4676.00
2019-04-22T11:58:42.472Z,4696.00
2019-04-22T11:59:41.173Z,4724.00
2019-04-22T12:00:41.224Z,4732.00
2019-04-22T12:01:42.514Z,4744.00
2019-04-22T12:02:42.936Z,4776.00
2019-04-22T12:03:41.997Z,4816.00
2019-04-22T12:04:41.405Z,4864.00
2019-04-22T12:05:41.778Z,4904.00
2019-04-22T12:06:41.969Z,4900.00
2019-04-22T12:07:42.402Z,4896.00
2019-04-22T12:08:41.617Z,4916.00
2019-04-22T12:09:41.925Z,4920.00
2019-04-22T12:10:49.440Z,4924.00
2019-04-22T12:11:41.719Z,4948.00
2019-04-22T12:12:44.704Z,4988.00
2019-04-22T12:13:42.254Z,5040.00
2019-04-22T12:14:42.467Z,5064.00
2019-04-22T12:15:42.746Z,5100.00
2019-04-22T12:16:43.464Z,5140.00
2019-04-22T12:17:42.646Z,5152.00
2019-04-22T12:18:43.091Z,5164.00
2019-04-22T12:19:42.111Z,5184.00
2019-04-22T12:20:43.366Z,5188.00
2019-04-22T12:21:42.176Z,5192.00
2019-04-22T12:22:42.928Z,5216.00
2019-04-22T12:23:43.429Z,5208.00
2019-04-22T12:24:42.596Z,5200.00
2019-04-22T12:25:51.710Z,5204.00
2019-04-22T12:26:42.509Z,5180.00
2019-04-22T12:27:43.152Z,5180.00
2019-04-22T12:28:42.510Z,5172.00
2019-04-22T12:29:43.011Z,5152.00
2019-04-22T12:30:43.515Z,5128.00
2019-04-22T12:31:42.726Z,5124.00
2019-04-22T12:32:43.554Z,5116.00
2019-04-22T12:33:43.405Z,5096.00
2019-04-22T12:34:43.663Z,5112.00
2019-04-22T12:35:44.228Z,5116.00
2019-04-22T12:36:42.875Z,5100.00
2019-04-22T12:37:51.029Z,5088.00
2019-04-22T12:38:42.960Z,5068.00
2019-04-22T12:39:43.481Z,5064.00
2019-04-22T12:40:52.260Z,5068.00
2019-04-22T12:41:44.316Z,5072.00
2019-04-22T12:42:43.137Z,5056.00
2019-04-22T12:43:43.269Z,5036.00
2019-04-22T12:44:44.122Z,5020.00
2019-04-22T12:45:44.780Z,4996.00
2019-04-22T12:46:43.939Z,4988.00
2019-04-22T12:47:44.123Z,4972.00
2019-04-22T12:48:43.473Z,4968.00
2019-04-22T12:49:47.594Z,4948.00
2019-04-22T12:50:45.922Z,4920.00
2019-04-22T12:51:45.253Z,4920.00
2019-04-22T12:52:51.417Z,4892.00
2019-04-22T12:53:44.560Z,4888.00
2019-04-22T12:54:44.629Z,4868.00
2019-04-22T12:55:43.969Z,4856.00
2019-04-22T12:56:44.067Z,4852.00
2019-04-22T12:57:43.834Z,4840.00
2019-04-22T12:58:43.879Z,4856.00
2019-04-22T12:59:43.921Z,4868.00
2019-04-22T13:00:44.926Z,4888.00
2019-04-22T13:01:44.719Z,4900.00
2019-04-22T13:02:45.012Z,4912.00
2019-04-22T13:03:44.677Z,4908.00
2019-04-22T13:04:44.158Z,4912.00
2019-04-22T13:05:45.144Z,4912.00
2019-04-22T13:06:45.603Z,4900.00
2019-04-22T13:07:44.320Z,4892.00
2019-04-22T13:08:45.583Z,4884.00
2019-04-22T13:09:45.409Z,4860.00
2019-04-22T13:10:53.661Z,4844.00
2019-04-22T13:11:45.957Z,4828.00
2019-04-22T13:12:44.850Z,4836.00
2019-04-22T13:13:45.148Z,4840.00
2019-04-22T13:14:45.552Z,4836.00
2019-04-22T13:15:44.702Z,4788.00
2019-04-22T13:16:44.990Z,4760.00
2019-04-22T13:17:46.269Z,4728.00
2019-04-22T13:18:53.145Z,4704.00
2019-04-22T13:19:44.843Z,4720.00
2019-04-22T13:20:46.266Z,4744.00
2019-04-22T13:21:44.952Z,4776.00
2019-04-22T13:22:45.089Z,4780.00
2019-04-22T13:23:46.300Z,4788.00
2019-04-22T13:24:45.821Z,4808.00
2019-04-22T13:25:45.116Z,4792.00
2019-04-22T13:26:45.352Z,4808.00
2019-04-22T13:27:46.769Z,4796.00
2019-04-22T13:28:45.276Z,4788.00
2019-04-22T13:29:46.695Z,4808.00
2019-04-22T13:30:46.520Z,4872.00
2019-04-22T13:31:46.584Z,4924.00
2019-04-22T13:32:46.967Z,4972.00
2019-04-22T13:33:46.670Z,5004.00
2019-04-22T13:34:48.016Z,5008.00
2019-04-22T13:35:45.755Z,4992.00
2019-04-22T13:36:47.026Z,4992.00
2019-04-22T13:37:46.762Z,5004.00
2019-04-22T13:38:46.806Z,5012.00
2019-04-22T13:39:46.953Z,4992.00
2019-04-22T13:41:00.893Z,5012.00
2019-04-22T13:41:50.473Z,5020.00
2019-04-22T13:42:46.843Z,5024.00
2019-04-22T13:43:47.165Z,5004.00
2019-04-22T13:44:46.187Z,4972.00
2019-04-22T13:45:46.033Z,4948.00
2019-04-22T13:47:04.104Z,4964.00
2019-04-22T13:48:02.886Z,4968.00
2019-04-22T13:49:14.755Z,4956.00
2019-04-22T13:50:35.538Z,4928.00
2019-04-22T13:51:33.955Z,4848.00
2019-04-22T13:52:20.770Z,4832.00
2019-04-22T13:53:30.404Z,4812.00
2019-04-22T13:54:46.889Z,4804.00
2019-04-22T13:55:16.403Z,4828.00
2019-04-22T13:56:07.206Z,4852.00
2019-04-22T13:57:06.167Z,4872.00
2019-04-22T13:57:58.265Z,4892.00